createdAt,value
2019-02-26T00:04:45.120Z,5.63
2019-02-26T00:09:51.380Z,5.63
2019-02-26T00:14:59.532Z,5.63
2019-02-26T00:20:07.872Z,5.51
2019-02-26T00:25:16.160Z,5.44
2019-02-26T00:30:22.178Z,5.36
2019-02-26T00:35:27.789Z,5.34
2019-02-26T00:40:34.949Z,5.28
2019-02-26T00:45:40.095Z,5.19
2019-02-26T00:50:45.835Z,5.09
2019-02-26T00:55:54.200Z,5.12
2019-02-26T01:00:58.667Z,5.13
2019-02-26T01:06:05.927Z,5.06
2019-02-26T01:11:12.190Z,5.00
2019-02-26T01:16:17.519Z,5.00
2019-02-26T01:21:26.266Z,5.03
2019-02-26T01:26:29.906Z,5.03
2019-02-26T01:31:35.372Z,5.03
2019-02-26T01:36:42.626Z,4.99
2019-02-26T01:41:50.369Z,4.97
2019-02-26T01:46:56.250Z,4.98
2019-02-26T01:52:02.333Z,4.98
2019-02-26T01:57:09.281Z,5.00
2019-02-26T02:02:17.471Z,4.97
2019-02-26T02:07:23.719Z,4.92
2019-02-26T02:12:31.547Z,4.93
2019-02-26T02:17:38.375Z,5.01
2019-02-26T02:22:44.403Z,5.00
2019-02-26T02:27:54.146Z,5.07
2019-02-26T02:32:59.443Z,5.03
2019-02-26T02:38:04.916Z,5.03
2019-02-26T02:43:13.228Z,5.03
2019-02-26T02:48:17.341Z,4.98
2019-02-26T02:53:23.936Z,4.98
2019-02-26T02:58:29.320Z,4.94
2019-02-26T03:03:34.451Z,4.96
2019-02-26T03:08:42.107Z,4.94
2019-02-26T03:13:48.343Z,4.90
2019-02-26T03:18:53.604Z,4.91
2019-02-26T03:24:01.048Z,4.90
2019-02-26T03:29:06.164Z,4.88
2019-02-26T03:34:18.930Z,4.83
2019-02-26T03:39:18.092Z,4.81
2019-02-26T03:44:23.471Z,4.87
2019-02-26T03:49:28.928Z,4.96
2019-02-26T03:54:37.210Z,5.02
2019-02-26T03:59:41.569Z,5.10
2019-02-26T04:04:51.718Z,5.09
2019-02-26T04:09:55.765Z,5.12
2019-02-26T04:15:00.947Z,5.17
2019-02-26T04:20:08.891Z,5.14
2019-02-26T04:25:36.521Z,5.03
2019-02-26T04:31:02.626Z,4.99
2019-02-26T04:36:15.028Z,5.04
2019-02-26T04:41:20.628Z,5.03
2019-02-26T04:46:34.341Z,4.99
2019-02-26T04:51:41.951Z,5.09
2019-02-26T04:56:47.936Z,4.95
2019-02-26T05:01:55.124Z,4.90
2019-02-26T05:07:04.368Z,4.97
2019-02-26T05:12:08.599Z,4.91
2019-02-26T05:17:13.973Z,4.98
2019-02-26T05:22:21.953Z,4.95
2019-02-26T05:27:26.527Z,4.95
2019-02-26T05:32:33.419Z,5.10
2019-02-26T05:37:40.953Z,5.10
2019-02-26T05:42:46.332Z,5.01
2019-02-26T05:47:56.068Z,5.03
2019-02-26T05:53:01.816Z,5.07
2019-02-26T05:58:07.414Z,5.21
2019-02-26T06:03:16.352Z,5.24
2019-02-26T06:08:25.617Z,5.20
2019-02-26T06:13:29.141Z,5.30
2019-02-26T06:18:35.336Z,5.35
2019-02-26T06:23:43.111Z,5.45
2019-02-26T06:28:52.984Z,5.38
2019-02-26T06:34:01.476Z,5.47
2019-02-26T06:39:06.225Z,5.49
2019-02-26T06:44:11.584Z,5.63
2019-02-26T06:49:20.091Z,5.65
2019-02-26T06:54:24.955Z,5.78
2019-02-26T06:59:55.714Z,5.76
2019-02-26T07:05:00.614Z,5.82
2019-02-26T07:10:13.807Z,5.89
2019-02-26T07:15:17.356Z,6.00
2019-02-26T07:20:22.768Z,6.17
2019-02-26T07:25:28.034Z,6.32
2019-02-26T07:30:35.309Z,6.47
2019-02-26T07:35:40.699Z,6.61
2019-02-26T07:40:46.059Z,6.84
2019-02-26T07:45:51.475Z,6.92
2019-02-26T07:50:56.878Z,7.07
2019-02-26T07:56:04.510Z,7.24
2019-02-26T08:01:09.415Z,7.38
2019-02-26T08:06:14.703Z,7.77
2019-02-26T08:11:20.117Z,7.92
2019-02-26T08:16:27.520Z,8.02
2019-02-26T08:21:32.428Z,8.10
2019-02-26T08:26:38.637Z,8.20
2019-02-26T08:31:46.612Z,8.20
2019-02-26T08:36:52.501Z,8.34
2019-02-26T08:42:08.804Z,8.40
2019-02-26T08:47:16.238Z,8.59
2019-02-26T08:52:22.731Z,8.64
2019-02-26T08:57:27.936Z,8.88
2019-02-26T09:02:33.159Z,8.88
2019-02-26T09:07:40.471Z,8.91
2019-02-26T09:12:46.748Z,9.09
2019-02-26T09:17:53.175Z,9.18
2019-02-26T09:23:01.087Z,9.27
2019-02-26T09:28:05.637Z,9.26
2019-02-26T09:33:11.191Z,9.25
2019-02-26T09:38:17.674Z,9.25
2019-02-26T09:43:24.466Z,9.29
2019-02-26T09:48:30.034Z,9.30
2019-02-26T09:53:35.328Z,9.44
2019-02-26T09:58:42.876Z,9.47
2019-02-26T10:03:47.429Z,9.56
2019-02-26T10:08:53.302Z,9.54
2019-02-26T10:13:59.527Z,9.50
2019-02-26T10:19:04.947Z,9.57
2019-02-26T10:24:10.216Z,9.60
2019-02-26T10:29:15.362Z,9.57
2019-02-26T10:34:25.490Z,9.56
2019-02-26T10:39:28.386Z,9.71
2019-02-26T10:44:34.004Z,9.67
2019-02-26T10:49:39.358Z,9.68
2019-02-26T10:54:46.567Z,9.69
2019-02-26T10:59:51.614Z,9.83
2019-02-26T11:04:57.991Z,10.09
2019-02-26T11:10:03.237Z,9.87
2019-02-26T11:15:13.134Z,9.81
2019-02-26T11:20:21.840Z,9.90
2019-02-26T11:25:27.562Z,9.86
2019-02-26T11:30:33.077Z,9.95
2019-02-26T11:35:39.727Z,9.93
2019-02-26T11:40:45.323Z,9.96
2019-02-26T11:45:50.991Z,9.79
2019-02-26T11:50:56.363Z,9.77
2019-02-26T11:56:02.131Z,9.84
2019-02-26T12:01:08.711Z,9.85
2019-02-26T12:06:13.971Z,9.80
2019-02-26T12:11:20.332Z,9.89
2019-02-26T12:16:28.466Z,9.87
2019-02-26T12:21:34.578Z,9.82
2019-02-26T12:26:42.304Z,9.84
2019-02-26T12:31:47.519Z,9.82
2019-02-26T12:36:56.345Z,9.95
2019-02-26T12:41:59.801Z,9.76
2019-02-26T12:47:06.268Z,9.83
2019-02-26T12:52:11.720Z,9.98
2019-02-26T12:57:19.097Z,10.08
2019-02-26T13:02:25.668Z,9.94
2019-02-26T13:07:30.774Z,9.97
2019-02-26T13:12:36.230Z,10.06
2019-02-26T13:17:44.317Z,9.76
2019-02-26T13:22:48.859Z,9.75
2019-02-26T13:27:53.926Z,9.89
2019-02-26T13:33:00.856Z,9.89
2019-02-26T13:38:06.782Z,9.84
2019-02-26T13:43:12.485Z,9.66
2019-02-26T13:48:18.849Z,9.59
2019-02-26T13:53:24.327Z,9.68
2019-02-26T13:58:29.696Z,9.76
2019-02-26T14:03:35.235Z,9.66
2019-02-26T14:08:40.985Z,9.65
2019-02-26T14:13:46.288Z,9.73
2019-02-26T14:18:51.446Z,9.79
2019-02-26T14:23:56.779Z,10.56
2019-02-26T14:29:02.150Z,12.47
2019-02-26T14:34:07.394Z,12.78
2019-02-26T14:39:12.900Z,13.08
2019-02-26T14:44:18.211Z,13.72
2019-02-26T14:49:23.667Z,13.77
2019-02-26T14:54:29.152Z,14.08
2019-02-26T14:59:34.495Z,13.83
2019-02-26T15:04:40.002Z,12.91
2019-02-26T15:09:45.328Z,12.27
2019-02-26T15:14:50.735Z,12.12
2019-02-26T15:19:56.113Z,11.78
2019-02-26T15:25:01.325Z,10.67
2019-02-26T15:30:09.868Z,9.78
2019-02-26T15:35:16.102Z,9.36
2019-02-26T15:40:22.440Z,8.83
2019-02-26T15:45:30.222Z,8.83
2019-02-26T15:50:37.688Z,8.74
2019-02-26T15:55:42.706Z,8.61
2019-02-26T16:00:48.120Z,8.38
2019-02-26T16:05:54.605Z,8.38
2019-02-26T16:10:59.846Z,8.16
2019-02-26T16:16:05.471Z,8.06
2019-02-26T16:21:10.888Z,7.94
2019-02-26T16:26:16.159Z,7.78
2019-02-26T16:31:21.596Z,7.74
2019-02-26T16:36:28.758Z,7.64
2019-02-26T16:41:35.635Z,7.56
2019-02-26T16:46:42.092Z,7.48
2019-02-26T16:51:48.055Z,7.37
2019-02-26T16:56:54.642Z,7.28
2019-02-26T17:02:01.839Z,7.18
2019-02-26T17:07:07.513Z,7.10
2019-02-26T17:12:12.978Z,7.05
2019-02-26T17:17:18.707Z,6.98
2019-02-26T17:22:24.209Z,6.99
2019-02-26T17:27:30.291Z,6.96
2019-02-26T17:32:38.087Z,6.88
2019-02-26T17:37:43.064Z,6.80
2019-02-26T17:42:48.893Z,6.73
2019-02-26T17:47:56.799Z,6.67
2019-02-26T17:53:02.953Z,6.45
2019-02-26T17:58:10.549Z,6.40
2019-02-26T18:03:15.163Z,6.36
2019-02-26T18:08:20.826Z,6.28
2019-02-26T18:13:26.271Z,6.20
2019-02-26T18:18:34.185Z,6.18
2019-02-26T18:23:38.669Z,6.15
2019-02-26T18:28:47.444Z,6.07
2019-02-26T18:33:50.896Z,5.96
2019-02-26T18:38:56.363Z,6.00
2019-02-26T18:44:09.581Z,5.89
2019-02-26T18:49:15.282Z,5.80
2019-02-26T18:54:21.125Z,5.70
2019-02-26T18:59:27.535Z,5.55
2019-02-26T19:04:32.885Z,5.54
2019-02-26T19:09:38.710Z,5.51
2019-02-26T19:14:44.002Z,5.45
2019-02-26T19:19:50.559Z,5.41
2019-02-26T19:24:56.167Z,5.31
2019-02-26T19:30:04.167Z,5.27
2019-02-26T19:35:12.516Z,5.15
2019-02-26T19:40:20.945Z,5.08
2019-02-26T19:45:26.507Z,5.07
2019-02-26T19:50:31.705Z,4.99
2019-02-26T19:55:39.796Z,4.98
2019-02-26T20:00:46.398Z,4.98
2019-02-26T20:05:51.820Z,4.90
2019-02-26T20:10:57.784Z,4.93
2019-02-26T20:16:03.653Z,4.98
2019-02-26T20:21:08.724Z,4.96
2019-02-26T20:26:16.385Z,4.85
2019-02-26T20:31:21.874Z,4.83
2019-02-26T20:36:27.549Z,4.75
2019-02-26T20:41:32.718Z,4.78
2019-02-26T20:46:38.373Z,4.78
2019-02-26T20:51:43.510Z,4.73
2019-02-26T20:56:48.878Z,4.68
2019-02-26T21:01:55.283Z,4.65
2019-02-26T21:07:00.643Z,4.70
2019-02-26T21:12:06.615Z,4.76
2019-02-26T21:17:12.050Z,4.72
2019-02-26T21:22:19.781Z,4.71
2019-02-26T21:27:25.959Z,4.64
2019-02-26T21:32:31.624Z,4.58
2019-02-26T21:37:37.196Z,4.52
2019-02-26T21:42:42.653Z,4.56
2019-02-26T21:47:48.338Z,4.52
2019-02-26T21:53:00.943Z,4.49
2019-02-26T21:58:00.440Z,4.33
2019-02-26T22:03:06.057Z,4.27
2019-02-26T22:08:11.693Z,4.25
2019-02-26T22:13:17.715Z,4.28
2019-02-26T22:18:23.547Z,4.28
2019-02-26T22:23:29.453Z,4.24
2019-02-26T22:28:35.284Z,4.25
2019-02-26T22:33:43.185Z,4.27
2019-02-26T22:38:49.187Z,4.26
2019-02-26T22:43:55.784Z,4.23
2019-02-26T22:49:01.319Z,4.16
2019-02-26T22:54:09.491Z,4.09
2019-02-26T22:59:14.301Z,4.17
2019-02-26T23:04:20.459Z,4.08
2019-02-26T23:09:28.084Z,4.17
2019-02-26T23:14:35.896Z,4.13
2019-02-26T23:19:41.920Z,4.10
2019-02-26T23:24:47.849Z,4.09
2019-02-26T23:29:54.635Z,3.96
2019-02-26T23:35:10.749Z,3.89
2019-02-26T23:40:17.445Z,3.93
2019-02-26T23:45:24.139Z,3.80
2019-02-26T23:50:30.614Z,3.65
2019-02-26T23:55:36.481Z,3.71
